createdAt,value
2022-09-20T00:01:42.540Z,10.11
2022-09-20T00:04:10.439Z,10.13
2022-09-20T00:06:37.287Z,10.16
2022-09-20T00:09:05.530Z,10.17
2022-09-20T00:11:34.886Z,10.19
2022-09-20T00:14:04.171Z,10.21
2022-09-20T00:16:34.249Z,10.24
2022-09-20T00:19:06.844Z,10.25
2022-09-20T00:21:37.832Z,10.26
2022-09-20T00:24:06.082Z,10.26
2022-09-20T00:26:33.032Z,10.29
2022-09-20T00:29:00.344Z,10.29
2022-09-20T00:31:27.362Z,10.30
2022-09-20T00:34:13.946Z,10.29
2022-09-20T00:36:41.215Z,10.27
2022-09-20T00:39:10.956Z,10.25
2022-09-20T00:41:38.161Z,10.24
2022-09-20T00:44:47.846Z,10.24
2022-09-20T00:47:24.472Z,10.22
2022-09-20T00:49:56.553Z,10.22
2022-09-20T00:52:24.158Z,10.22
2022-09-20T00:54:51.198Z,10.21
2022-09-20T00:57:18.143Z,10.20
2022-09-20T00:59:49.658Z,10.19
2022-09-20T01:02:29.264Z,10.16
2022-09-20T01:04:57.798Z,10.15
2022-09-20T01:07:26.318Z,10.13
2022-09-20T01:09:53.314Z,10.13
2022-09-20T01:12:25.995Z,10.11
2022-09-20T01:14:54.107Z,10.07
2022-09-20T01:17:24.396Z,10.04
2022-09-20T01:20:17.601Z,10.02
2022-09-20T01:23:12.658Z,10.04
2022-09-20T01:26:05.311Z,10.03
2022-09-20T01:28:32.816Z,10.04
2022-09-20T01:31:20.938Z,10.05
2022-09-20T01:33:54.195Z,10.06
2022-09-20T01:36:31.849Z,10.07
2022-09-20T01:39:23.159Z,10.07
2022-09-20T01:41:59.658Z,10.08
2022-09-20T01:44:50.819Z,10.10
2022-09-20T01:47:23.043Z,10.09
2022-09-20T01:50:02.280Z,10.09
2022-09-20T01:52:40.777Z,10.08
2022-09-20T01:55:35.319Z,10.07
2022-09-20T01:58:41.484Z,10.05
2022-09-20T02:01:38.913Z,10.02
2022-09-20T02:04:17.927Z,9.98
2022-09-20T02:07:00.160Z,9.97
2022-09-20T02:09:44.888Z,9.96
2022-09-20T02:12:33.508Z,9.95
2022-09-20T02:15:29.832Z,9.95
2022-09-20T02:18:17.961Z,9.97
2022-09-20T02:21:03.302Z,9.98
2022-09-20T02:23:45.032Z,10.00
2022-09-20T02:26:29.804Z,9.99
2022-09-20T02:29:24.863Z,9.98
2022-09-20T02:32:19.082Z,9.97
2022-09-20T02:35:06.883Z,9.95
2022-09-20T02:37:36.439Z,9.92
2022-09-20T02:40:25.721Z,9.90
2022-09-20T02:43:04.176Z,9.88
2022-09-20T02:46:02.071Z,9.84
2022-09-20T02:48:42.872Z,9.82
2022-09-20T02:51:25.533Z,9.79
2022-09-20T02:54:03.735Z,9.75
2022-09-20T02:56:58.738Z,9.70
2022-09-20T02:59:35.512Z,9.67
2022-09-20T03:02:09.444Z,9.64
2022-09-20T03:04:53.084Z,9.60
2022-09-20T03:08:12.454Z,9.59
2022-09-20T03:10:50.447Z,9.55
2022-09-20T03:13:35.575Z,9.52
2022-09-20T03:16:05.058Z,9.51
2022-09-20T03:18:57.882Z,9.50
2022-09-20T03:21:44.849Z,9.48
2022-09-20T03:24:26.032Z,9.45
2022-09-20T03:27:04.851Z,9.44
2022-09-20T03:29:48.558Z,9.40
2022-09-20T03:32:53.225Z,9.37
2022-09-20T03:35:33.222Z,9.36
2022-09-20T03:38:35.143Z,9.37
2022-09-20T03:41:26.665Z,9.34
2022-09-20T03:43:56.470Z,9.34
2022-09-20T03:46:28.604Z,9.32
2022-09-20T03:49:07.073Z,9.30
2022-09-20T03:51:39.739Z,9.28
2022-09-20T03:54:31.332Z,9.27
2022-09-20T03:57:18.286Z,9.25
2022-09-20T04:00:16.693Z,9.24
2022-09-20T04:03:01.572Z,9.22
2022-09-20T04:05:48.859Z,9.17
2022-09-20T04:08:38.069Z,9.15
2022-09-20T04:11:20.423Z,9.13
2022-09-20T04:14:27.955Z,9.10
2022-09-20T04:17:30.963Z,9.05
2022-09-20T04:20:15.338Z,9.03
2022-09-20T04:22:44.872Z,9.01
2022-09-20T04:25:20.530Z,8.96
2022-09-20T04:27:53.572Z,8.96
2022-09-20T04:30:30.443Z,8.95
2022-09-20T04:33:25.379Z,8.93
2022-09-20T04:36:28.947Z,8.89
2022-09-20T04:39:14.853Z,8.90
2022-09-20T04:42:03.199Z,8.89
2022-09-20T04:44:53.122Z,8.88
2022-09-20T04:48:09.138Z,8.86
2022-09-20T04:51:12.331Z,8.86
2022-09-20T04:54:08.573Z,8.86
2022-09-20T04:57:09.284Z,8.87
2022-09-20T04:59:55.407Z,8.88
2022-09-20T05:02:50.658Z,8.90
2022-09-20T05:05:35.924Z,8.90
2022-09-20T05:08:41.023Z,8.92
2022-09-20T05:11:47.408Z,8.93
2022-09-20T05:14:52.594Z,8.96
2022-09-20T05:17:28.027Z,8.96
2022-09-20T05:20:02.697Z,8.95
2022-09-20T05:22:44.136Z,8.95
2022-09-20T05:25:59.769Z,8.92
2022-09-20T05:28:32.359Z,8.90
2022-09-20T05:31:07.078Z,8.88
2022-09-20T05:34:08.145Z,8.86
2022-09-20T05:36:55.452Z,8.85
2022-09-20T05:39:22.255Z,8.83
2022-09-20T05:42:13.112Z,8.83
2022-09-20T05:44:48.762Z,8.82
2022-09-20T05:47:22.109Z,8.82
2022-09-20T05:49:58.065Z,8.78
2022-09-20T05:52:55.369Z,8.77
2022-09-20T05:55:46.022Z,8.74
2022-09-20T05:58:45.222Z,8.73
2022-09-20T06:01:41.311Z,8.74
2022-09-20T06:04:24.123Z,8.76
2022-09-20T06:07:02.840Z,8.79
2022-09-20T06:09:41.512Z,8.85
2022-09-20T06:12:41.276Z,8.91
2022-09-20T06:15:19.960Z,9.00
2022-09-20T06:18:27.146Z,9.06
2022-09-20T06:21:15.639Z,9.16
2022-09-20T06:23:42.653Z,9.23
2022-09-20T06:26:19.998Z,9.30
2022-09-20T06:29:00.673Z,9.37
2022-09-20T06:31:27.919Z,9.45
2022-09-20T06:34:15.938Z,9.53
2022-09-20T06:37:13.236Z,9.59
2022-09-20T06:40:13.015Z,9.68
2022-09-20T06:42:39.912Z,9.74
2022-09-20T06:45:07.192Z,9.79
2022-09-20T06:47:38.565Z,9.86
2022-09-20T06:50:06.493Z,9.92
2022-09-20T06:52:34.715Z,9.97
2022-09-20T06:55:09.117Z,10.03
2022-09-20T06:57:40.756Z,10.09
2022-09-20T07:00:11.535Z,10.22
2022-09-20T07:02:38.724Z,10.33
2022-09-20T07:05:07.616Z,10.47
2022-09-20T07:07:34.728Z,10.58
2022-09-20T07:10:01.707Z,10.69
2022-09-20T07:12:31.439Z,10.81
2022-09-20T07:14:58.266Z,10.97
2022-09-20T07:17:25.573Z,10.99
2022-09-20T07:19:52.474Z,11.03
2022-09-20T07:22:19.413Z,11.25
2022-09-20T07:24:46.644Z,11.59
2022-09-20T07:27:13.836Z,11.93
2022-09-20T07:29:41.291Z,12.21
2022-09-20T07:32:08.702Z,12.32
2022-09-20T07:34:35.689Z,12.25
2022-09-20T07:37:02.779Z,12.21
2022-09-20T07:39:29.630Z,12.21
2022-09-20T07:41:56.787Z,12.24
2022-09-20T07:44:28.002Z,12.29
2022-09-20T07:46:58.138Z,12.33
2022-09-20T07:49:26.342Z,12.36
2022-09-20T07:51:53.979Z,12.37
2022-09-20T07:54:21.316Z,12.38
2022-09-20T07:56:48.699Z,12.41
2022-09-20T07:59:15.684Z,12.48
2022-09-20T08:01:42.935Z,12.58
2022-09-20T08:04:10.651Z,12.69
2022-09-20T08:06:42.924Z,12.71
2022-09-20T08:09:11.866Z,12.70
2022-09-20T08:11:40.207Z,12.67
2022-09-20T08:14:16.145Z,12.65
2022-09-20T08:16:48.350Z,12.67
2022-09-20T08:19:21.051Z,12.69
2022-09-20T08:21:48.574Z,12.73
2022-09-20T08:24:16.551Z,12.71
2022-09-20T08:26:43.927Z,12.69
2022-09-20T08:29:11.758Z,12.71
2022-09-20T08:31:42.507Z,12.74
2022-09-20T08:34:12.246Z,12.76
2022-09-20T08:36:42.169Z,12.81
2022-09-20T08:42:33.882Z,12.93
2022-09-20T08:45:34.614Z,13.18
2022-09-20T08:48:06.419Z,13.35
2022-09-20T08:50:37.063Z,13.42
2022-09-20T08:53:05.166Z,13.41
2022-09-20T08:55:40.160Z,13.38
2022-09-20T08:58:12.219Z,13.38
2022-09-20T09:00:47.080Z,13.50
2022-09-20T09:03:17.244Z,13.59
2022-09-20T09:05:50.838Z,13.91
2022-09-20T09:08:21.975Z,14.30
2022-09-20T09:10:54.312Z,14.63
2022-09-20T09:13:27.024Z,14.95
2022-09-20T09:16:11.653Z,14.90
2022-09-20T09:18:41.909Z,14.94
2022-09-20T09:21:17.081Z,14.94
2022-09-20T09:24:01.300Z,14.89
2022-09-20T09:26:29.645Z,14.93
2022-09-20T09:29:08.560Z,14.99
2022-09-20T09:31:35.790Z,14.93
2022-09-20T09:34:03.065Z,14.92
2022-09-20T09:36:29.973Z,14.88
2022-09-20T09:39:16.768Z,14.93
2022-09-20T09:41:44.603Z,14.94
2022-09-20T09:44:21.976Z,15.02
2022-09-20T09:46:50.564Z,15.17
2022-09-20T09:49:23.036Z,15.32
2022-09-20T09:51:56.132Z,15.31
2022-09-20T09:54:26.154Z,15.07
2022-09-20T09:57:12.049Z,14.97
2022-09-20T09:59:40.344Z,14.88
2022-09-20T10:02:19.563Z,14.76
2022-09-20T10:05:03.328Z,14.63
2022-09-20T10:07:55.207Z,14.61
2022-09-20T10:11:00.993Z,14.61
2022-09-20T10:14:03.771Z,14.64
2022-09-20T10:16:55.572Z,14.77
2022-09-20T10:19:41.379Z,14.96
2022-09-20T10:22:34.236Z,15.05
2022-09-20T10:25:19.683Z,15.10
2022-09-20T10:28:08.980Z,15.07
2022-09-20T10:31:06.716Z,15.17
2022-09-20T10:33:44.594Z,15.31
2022-09-20T10:36:16.514Z,15.46
2022-09-20T10:39:09.101Z,15.55
2022-09-20T10:42:05.047Z,15.69
2022-09-20T10:44:38.271Z,15.94
2022-09-20T10:47:15.445Z,16.08
2022-09-20T10:49:44.336Z,16.25
2022-09-20T10:52:40.388Z,16.52
2022-09-20T10:55:52.181Z,16.47
2022-09-20T10:58:49.259Z,16.30
2022-09-20T11:01:46.506Z,16.21
2022-09-20T11:04:25.275Z,16.33
2022-09-20T11:07:39.971Z,16.46
2022-09-20T11:10:17.333Z,16.57
2022-09-20T11:12:55.400Z,16.63
2022-09-20T11:15:31.488Z,16.80
2022-09-20T11:18:41.080Z,16.84
2022-09-20T11:21:23.556Z,16.78
2022-09-20T11:24:02.116Z,16.73
2022-09-20T11:26:53.385Z,16.69
2022-09-20T11:29:42.391Z,16.59
2022-09-20T11:32:16.279Z,16.60
2022-09-20T11:35:12.042Z,16.71
2022-09-20T11:37:43.799Z,16.83
2022-09-20T11:40:22.241Z,17.09
2022-09-20T11:42:52.915Z,17.05
2022-09-20T11:45:24.032Z,16.91
2022-09-20T11:48:00.210Z,16.75
2022-09-20T11:50:51.256Z,16.81
2022-09-20T11:53:24.552Z,16.91
2022-09-20T11:55:59.154Z,16.92
2022-09-20T11:58:27.657Z,16.85
2022-09-20T12:00:57.578Z,16.96
2022-09-20T12:03:28.787Z,17.02
2022-09-20T12:05:58.963Z,16.99
2022-09-20T12:08:34.023Z,16.98
2022-09-20T12:11:05.348Z,16.96
2022-09-20T12:13:36.576Z,17.01
2022-09-20T12:16:12.991Z,16.90
2022-09-20T12:18:55.041Z,16.85
2022-09-20T12:21:22.822Z,16.78
2022-09-20T12:23:52.881Z,16.76
2022-09-20T12:26:22.712Z,16.71
2022-09-20T12:28:50.818Z,16.53
2022-09-20T12:31:29.459Z,16.43
2022-09-20T12:34:11.907Z,16.39
2022-09-20T12:36:44.642Z,16.42
2022-09-20T12:39:11.724Z,16.40
2022-09-20T12:41:50.311Z,16.49
2022-09-20T12:44:30.556Z,16.49
2022-09-20T12:47:12.718Z,16.56
2022-09-20T12:50:03.931Z,16.59
2022-09-20T12:52:57.406Z,16.51
2022-09-20T12:55:38.627Z,16.51
2022-09-20T12:58:17.619Z,16.31
2022-09-20T13:00:59.461Z,16.31
2022-09-20T13:03:45.543Z,16.24
2022-09-20T13:06:23.038Z,16.09
2022-09-20T13:09:02.129Z,16.02
2022-09-20T13:11:47.536Z,15.93
2022-09-20T13:14:24.924Z,15.87
2022-09-20T13:16:56.338Z,15.87
2022-09-20T13:19:42.118Z,15.83
2022-09-20T13:22:20.387Z,15.86
2022-09-20T13:24:50.079Z,15.93
2022-09-20T13:27:32.880Z,16.00
2022-09-20T13:30:19.125Z,16.08
2022-09-20T13:32:47.024Z,16.12
2022-09-20T13:35:24.694Z,16.18
2022-09-20T13:37:55.879Z,16.29
2022-09-20T13:40:33.801Z,16.67
2022-09-20T13:43:22.481Z,17.37
2022-09-20T13:45:56.400Z,17.79
2022-09-20T13:48:28.985Z,17.87
2022-09-20T13:50:57.098Z,17.49
2022-09-20T13:53:42.376Z,17.12
2022-09-20T13:56:21.668Z,16.76
2022-09-20T13:58:50.661Z,16.61
2022-09-20T14:01:35.972Z,16.49
2022-09-20T14:04:02.978Z,16.38
2022-09-20T14:06:29.982Z,16.33
2022-09-20T14:08:58.985Z,16.32
2022-09-20T14:11:34.217Z,16.23
2022-09-20T14:14:05.595Z,16.14
2022-09-20T14:16:38.404Z,16.14
2022-09-20T14:19:08.398Z,16.09
2022-09-20T14:21:37.399Z,16.12
2022-09-20T14:24:08.544Z,15.96
2022-09-20T14:26:37.613Z,15.91
2022-09-20T14:29:43.297Z,15.97
2022-09-20T14:32:19.267Z,16.06
2022-09-20T14:34:52.455Z,16.10
2022-09-20T14:37:36.644Z,15.97
2022-09-20T14:40:17.002Z,15.93
2022-09-20T14:42:47.232Z,16.04
2022-09-20T14:45:31.477Z,16.23
2022-09-20T14:48:09.571Z,16.40
2022-09-20T14:50:46.531Z,16.28
2022-09-20T14:53:19.353Z,16.16
2022-09-20T14:56:13.112Z,16.04
2022-09-20T14:59:08.239Z,15.92
2022-09-20T15:01:37.730Z,15.85
2022-09-20T15:04:10.040Z,15.95
2022-09-20T15:06:40.298Z,16.16
2022-09-20T15:09:09.792Z,16.19
2022-09-20T15:11:36.893Z,16.22
2022-09-20T15:14:04.164Z,16.11
2022-09-20T15:16:31.362Z,16.11
2022-09-20T15:18:58.353Z,15.99
2022-09-20T15:21:25.540Z,15.97
2022-09-20T15:23:52.545Z,16.11
2022-09-20T15:26:21.535Z,16.26
2022-09-20T15:28:48.913Z,16.16
2022-09-20T15:31:17.415Z,16.04
2022-09-20T15:33:44.588Z,15.84
2022-09-20T15:36:12.085Z,15.69
2022-09-20T15:38:39.406Z,15.55
2022-09-20T15:41:06.547Z,15.43
2022-09-20T15:43:33.629Z,15.31
2022-09-20T15:46:17.598Z,15.25
2022-09-20T15:48:44.376Z,15.11
2022-09-20T15:51:12.318Z,14.96
2022-09-20T15:53:45.296Z,14.90
2022-09-20T15:56:23.198Z,14.78
2022-09-20T15:58:53.357Z,14.71
2022-09-20T16:01:20.277Z,14.63
2022-09-20T16:03:47.293Z,14.56
2022-09-20T16:06:14.662Z,14.52
2022-09-20T16:08:43.348Z,14.44
2022-09-20T16:11:13.925Z,14.37
2022-09-20T16:13:41.317Z,14.34
2022-09-20T16:16:13.304Z,14.29
2022-09-20T16:18:58.833Z,14.27
2022-09-20T16:21:25.675Z,14.26
2022-09-20T16:23:54.996Z,14.30
2022-09-20T16:26:24.013Z,14.27
2022-09-20T16:28:51.964Z,14.28
2022-09-20T16:31:34.802Z,14.24
2022-09-20T16:34:09.859Z,14.19
2022-09-20T16:36:36.701Z,14.16
2022-09-20T16:39:03.827Z,14.11
2022-09-20T16:41:32.530Z,14.03
2022-09-20T16:43:59.678Z,13.98
2022-09-20T16:46:27.700Z,13.92
2022-09-20T16:48:56.944Z,13.83
2022-09-20T16:51:26.207Z,13.79
2022-09-20T16:53:55.092Z,13.74
2022-09-20T16:56:27.102Z,13.72
2022-09-20T16:58:54.644Z,13.66
2022-09-20T17:01:22.074Z,13.59
2022-09-20T17:03:49.564Z,13.55
2022-09-20T17:06:17.246Z,13.50
2022-09-20T17:08:45.169Z,13.45
2022-09-20T17:11:15.747Z,13.36
2022-09-20T17:13:44.533Z,13.30
2022-09-20T17:16:14.593Z,13.24
2022-09-20T17:18:43.398Z,13.22
2022-09-20T17:21:17.469Z,13.16
2022-09-20T17:23:50.826Z,13.11
2022-09-20T17:26:23.233Z,13.03
2022-09-20T17:28:51.879Z,12.98
2022-09-20T17:31:23.564Z,12.94
2022-09-20T17:33:51.904Z,12.90
2022-09-20T17:36:21.563Z,12.82
2022-09-20T17:38:53.270Z,12.76
2022-09-20T17:41:20.832Z,12.68
2022-09-20T17:43:49.014Z,12.59
2022-09-20T17:46:23.060Z,12.50
2022-09-20T17:48:55.862Z,12.45
2022-09-20T17:51:29.112Z,12.39
2022-09-20T17:53:56.408Z,12.33
2022-09-20T17:56:24.787Z,12.28
2022-09-20T17:58:51.683Z,12.21
2022-09-20T18:01:22.882Z,12.18
2022-09-20T18:03:50.195Z,12.14
2022-09-20T18:06:50.379Z,12.08
2022-09-20T18:09:19.946Z,12.04
2022-09-20T18:11:50.144Z,12.04
2022-09-20T18:14:19.479Z,12.02
2022-09-20T18:16:47.345Z,12.01
2022-09-20T18:19:16.290Z,11.97
2022-09-20T18:21:43.755Z,11.93
2022-09-20T18:24:12.274Z,11.88
2022-09-20T18:26:39.851Z,11.87
2022-09-20T18:29:11.293Z,11.88
2022-09-20T18:31:39.988Z,11.85
2022-09-20T18:34:11.352Z,11.83
2022-09-20T18:36:39.672Z,11.82
2022-09-20T18:39:07.781Z,11.80
2022-09-20T18:41:37.290Z,11.76
2022-09-20T18:44:07.775Z,11.73
2022-09-20T18:46:38.173Z,11.71
2022-09-20T18:49:08.163Z,11.70
2022-09-20T18:51:39.385Z,11.68
2022-09-20T18:54:10.275Z,11.66
2022-09-20T18:56:42.272Z,11.63
2022-09-20T18:59:15.446Z,11.60
2022-09-20T19:01:54.650Z,11.58
2022-09-20T19:04:55.358Z,11.57
2022-09-20T19:07:24.727Z,11.52
2022-09-20T19:10:06.534Z,11.49
2022-09-20T19:12:48.630Z,11.45
2022-09-20T19:15:29.394Z,11.40
2022-09-20T19:18:02.234Z,11.39
2022-09-20T19:20:56.773Z,11.36
2022-09-20T19:23:39.350Z,11.34
2022-09-20T19:26:14.026Z,11.34
2022-09-20T19:28:44.348Z,11.30
2022-09-20T19:31:31.557Z,11.29
2022-09-20T19:34:01.219Z,11.29
2022-09-20T19:36:56.335Z,11.29
2022-09-20T19:39:27.289Z,11.28
2022-09-20T19:42:03.791Z,11.30
2022-09-20T19:44:48.547Z,11.31
2022-09-20T19:47:34.610Z,11.30
2022-09-20T19:50:37.916Z,11.32
2022-09-20T19:53:05.255Z,11.33
2022-09-20T19:55:36.040Z,11.35
2022-09-20T19:58:04.074Z,11.33
2022-09-20T20:00:31.841Z,11.34
2022-09-20T20:02:59.233Z,11.34
2022-09-20T20:05:27.918Z,11.35
2022-09-20T20:08:35.471Z,11.34
2022-09-20T20:11:17.461Z,11.34
2022-09-20T20:14:04.944Z,11.32
2022-09-20T20:16:47.732Z,11.30
2022-09-20T20:19:33.131Z,11.29
2022-09-20T20:22:09.820Z,11.30
2022-09-20T20:24:53.824Z,11.29
2022-09-20T20:27:21.292Z,11.27
2022-09-20T20:29:49.436Z,11.27
2022-09-20T20:32:16.754Z,11.25
2022-09-20T20:34:43.646Z,11.25
2022-09-20T20:37:10.551Z,11.24
2022-09-20T20:39:37.374Z,11.22
2022-09-20T20:42:06.315Z,11.21
2022-09-20T20:44:37.433Z,11.22
2022-09-20T20:47:06.274Z,11.24
2022-09-20T20:49:33.433Z,11.22
2022-09-20T20:52:04.921Z,11.22
2022-09-20T20:54:32.739Z,11.22
2022-09-20T20:56:59.817Z,11.21
2022-09-20T20:59:26.985Z,11.22
2022-09-20T21:01:54.066Z,11.21
2022-09-20T21:04:21.829Z,11.20
2022-09-20T21:06:50.535Z,11.20
2022-09-20T21:09:17.433Z,11.18
2022-09-20T21:11:44.617Z,11.18
2022-09-20T21:14:13.033Z,11.18
2022-09-20T21:16:45.747Z,11.17
2022-09-20T21:19:15.810Z,11.16
2022-09-20T21:21:45.732Z,11.15
2022-09-20T21:24:17.420Z,11.16
2022-09-20T21:26:45.842Z,11.15
2022-09-20T21:29:15.309Z,11.15
2022-09-20T21:31:44.550Z,11.14
2022-09-20T21:34:13.294Z,11.13
2022-09-20T21:36:44.161Z,11.12
2022-09-20T21:39:11.490Z,11.13
2022-09-20T21:41:39.521Z,11.14
2022-09-20T21:44:08.057Z,11.11
2022-09-20T21:46:40.426Z,11.09
2022-09-20T21:49:10.156Z,11.09
2022-09-20T21:51:38.353Z,11.05
2022-09-20T21:54:05.793Z,11.05
2022-09-20T21:56:35.704Z,11.04
2022-09-20T21:59:04.038Z,11.04
2022-09-20T22:01:36.847Z,11.03
2022-09-20T22:04:11.939Z,11.02
2022-09-20T22:06:41.404Z,11.00
2022-09-20T22:09:14.107Z,10.99
2022-09-20T22:11:46.401Z,10.97
2022-09-20T22:14:14.863Z,10.95
2022-09-20T22:16:43.513Z,10.95
2022-09-20T22:19:12.397Z,10.91
2022-09-20T22:21:41.860Z,10.88
2022-09-20T22:24:10.701Z,10.88
2022-09-20T22:26:43.088Z,10.88
2022-09-20T22:29:10.373Z,10.83
2022-09-20T22:31:44.852Z,10.78
2022-09-20T22:34:15.119Z,10.78
2022-09-20T22:36:42.376Z,10.79
2022-09-20T22:39:11.520Z,10.79
2022-09-20T22:41:39.647Z,10.77
2022-09-20T22:44:07.002Z,10.73
2022-09-20T22:46:35.171Z,10.72
2022-09-20T22:49:05.758Z,10.71
2022-09-20T22:51:33.711Z,10.71
2022-09-20T22:54:09.996Z,10.70
2022-09-20T22:56:38.729Z,10.67
2022-09-20T22:59:07.837Z,10.65
2022-09-20T23:01:43.000Z,10.58
2022-09-20T23:04:15.743Z,10.55
2022-09-20T23:06:45.096Z,10.51
2022-09-20T23:09:13.678Z,10.46
2022-09-20T23:11:42.853Z,10.43
2022-09-20T23:14:12.467Z,10.41
2022-09-20T23:16:40.268Z,10.38
2022-09-20T23:19:08.481Z,10.36
2022-09-20T23:21:38.385Z,10.32
2022-09-20T23:24:07.954Z,10.27
2022-09-20T23:26:36.634Z,10.23
2022-09-20T23:29:06.511Z,10.18
2022-09-20T23:31:36.665Z,10.12
2022-09-20T23:34:06.316Z,10.05
2022-09-20T23:36:35.485Z,10.02
2022-09-20T23:39:02.529Z,9.96
2022-09-20T23:41:29.957Z,9.91
2022-09-20T23:43:57.390Z,9.87
2022-09-20T23:46:26.137Z,9.84
2022-09-20T23:48:53.334Z,9.79
2022-09-20T23:51:25.405Z,9.72
2022-09-20T23:53:53.435Z,9.68
2022-09-20T23:56:21.596Z,9.62
2022-09-20T23:58:49.054Z,9.57
